createdAt,value
2023-05-06T00:00:41.033Z,14.51
2023-05-06T00:01:40.980Z,14.50
2023-05-06T00:02:41.021Z,14.54
2023-05-06T00:03:41.047Z,14.55
2023-05-06T00:05:01.881Z,14.50
2023-05-06T00:05:40.855Z,14.53
2023-05-06T00:06:40.822Z,14.45
2023-05-06T00:07:40.777Z,14.47
2023-05-06T00:08:40.749Z,14.48
2023-05-06T00:09:40.718Z,14.47
2023-05-06T00:11:01.681Z,14.47
2023-05-06T00:11:40.658Z,14.47
2023-05-06T00:12:40.756Z,14.37
2023-05-06T00:13:40.610Z,14.43
2023-05-06T00:14:40.547Z,14.43
2023-05-06T00:15:40.509Z,14.41
2023-05-06T00:17:01.473Z,14.37
2023-05-06T00:17:40.518Z,14.43
2023-05-06T00:18:40.414Z,14.43
2023-05-06T00:19:40.400Z,14.44
2023-05-06T00:20:40.356Z,14.40
2023-05-06T00:21:40.306Z,14.33
2023-05-06T00:23:01.272Z,14.29
2023-05-06T00:23:40.246Z,14.30
2023-05-06T00:24:40.208Z,14.25
2023-05-06T00:25:40.214Z,14.26
2023-05-06T00:26:40.141Z,14.37
2023-05-06T00:27:40.106Z,14.29
2023-05-06T00:29:01.156Z,14.32
2023-05-06T00:29:40.041Z,14.26
2023-05-06T00:30:40.006Z,14.33
2023-05-06T00:31:39.986Z,14.28
2023-05-06T00:32:39.953Z,14.26
2023-05-06T00:33:39.917Z,14.20
2023-05-06T00:35:00.870Z,14.23
2023-05-06T00:35:39.838Z,14.22
2023-05-06T00:36:39.805Z,14.22
2023-05-06T00:37:39.775Z,14.23
2023-05-06T00:38:39.735Z,14.20
2023-05-06T00:39:39.705Z,14.18
2023-05-06T00:41:00.669Z,14.20
2023-05-06T00:41:39.638Z,14.17
2023-05-06T00:42:39.609Z,14.12
2023-05-06T00:43:39.567Z,14.11
2023-05-06T00:44:39.739Z,14.17
2023-05-06T00:45:39.515Z,14.14
2023-05-06T00:47:00.465Z,14.08
2023-05-06T00:47:39.488Z,14.14
2023-05-06T00:48:39.395Z,14.03
2023-05-06T00:49:39.370Z,13.99
2023-05-06T00:50:39.332Z,14.08
2023-05-06T00:51:39.296Z,14.08
2023-05-06T00:53:00.265Z,14.07
2023-05-06T00:53:39.231Z,14.00
2023-05-06T00:54:39.196Z,13.99
2023-05-06T00:55:39.161Z,14.00
2023-05-06T00:56:39.140Z,14.00
2023-05-06T00:57:39.096Z,14.03
2023-05-06T00:59:00.089Z,13.93
2023-05-06T00:59:39.029Z,13.96
2023-05-06T01:00:39.075Z,13.97
2023-05-06T01:01:39.006Z,13.93
2023-05-06T01:02:47.031Z,13.93
2023-05-06T01:03:38.947Z,13.95
2023-05-06T01:04:59.897Z,13.87
2023-05-06T01:05:38.822Z,13.86
2023-05-06T01:06:38.796Z,13.83
2023-05-06T01:07:38.752Z,13.81
2023-05-06T01:08:38.720Z,13.86
2023-05-06T01:09:38.689Z,13.86
2023-05-06T01:10:59.651Z,13.78
2023-05-06T01:11:38.639Z,13.79
2023-05-06T01:12:38.622Z,13.75
2023-05-06T01:13:38.565Z,13.85
2023-05-06T01:14:38.537Z,13.75
2023-05-06T01:15:38.481Z,13.86
2023-05-06T01:16:59.575Z,13.81
2023-05-06T01:17:38.428Z,13.78
2023-05-06T01:18:38.421Z,13.74
2023-05-06T01:19:38.349Z,13.75
2023-05-06T01:20:38.353Z,13.78
2023-05-06T01:21:38.287Z,13.75
2023-05-06T01:22:59.261Z,13.70
2023-05-06T01:23:38.218Z,13.71
2023-05-06T01:24:38.190Z,13.77
2023-05-06T01:25:38.142Z,13.72
2023-05-06T01:26:38.112Z,13.67
2023-05-06T01:27:38.079Z,13.68
2023-05-06T01:28:59.040Z,13.65
2023-05-06T01:29:38.002Z,13.70
2023-05-06T01:30:37.978Z,13.63
2023-05-06T01:31:38.029Z,13.60
2023-05-06T01:32:38.033Z,13.62
2023-05-06T01:33:37.873Z,13.62
2023-05-06T01:34:58.835Z,13.63
2023-05-06T01:35:37.804Z,13.63
2023-05-06T01:36:37.774Z,13.60
2023-05-06T01:37:37.737Z,13.63
2023-05-06T01:38:37.713Z,13.57
2023-05-06T01:39:37.668Z,13.59
2023-05-06T01:40:58.629Z,13.60
2023-05-06T01:41:37.595Z,13.60
2023-05-06T01:42:37.583Z,13.53
2023-05-06T01:43:37.531Z,13.54
2023-05-06T01:44:37.504Z,13.57
2023-05-06T01:45:37.461Z,13.52
2023-05-06T01:46:58.426Z,13.50
2023-05-06T01:47:37.427Z,13.52
2023-05-06T01:48:37.512Z,13.53
2023-05-06T01:49:37.328Z,13.50
2023-05-06T01:50:37.291Z,13.49
2023-05-06T01:51:37.255Z,13.47
2023-05-06T01:52:58.218Z,13.44
2023-05-06T01:53:37.183Z,13.31
2023-05-06T01:54:37.156Z,13.42
2023-05-06T01:55:37.122Z,13.42
2023-05-06T01:56:37.084Z,13.46
2023-05-06T01:57:37.049Z,13.42
2023-05-06T01:58:59.288Z,13.39
2023-05-06T01:59:36.980Z,13.38
2023-05-06T02:00:36.950Z,13.38
2023-05-06T02:01:37.003Z,13.31
2023-05-06T02:02:37.015Z,13.30
2023-05-06T02:03:36.902Z,13.41
2023-05-06T02:04:57.880Z,13.38
2023-05-06T02:05:36.776Z,13.30
2023-05-06T02:06:36.767Z,13.33
2023-05-06T02:07:36.707Z,13.33
2023-05-06T02:08:36.678Z,13.31
2023-05-06T02:09:36.637Z,13.28
2023-05-06T02:10:57.606Z,13.27
2023-05-06T02:11:36.577Z,13.25
2023-05-06T02:12:36.550Z,13.25
2023-05-06T02:13:36.513Z,13.19
2023-05-06T02:14:36.478Z,13.23
2023-05-06T02:15:36.436Z,13.30
2023-05-06T02:16:57.398Z,13.23
2023-05-06T02:17:36.365Z,13.20
2023-05-06T02:18:36.360Z,13.16
2023-05-06T02:19:36.299Z,13.19
2023-05-06T02:20:36.282Z,13.20
2023-05-06T02:21:36.224Z,13.23
2023-05-06T02:22:57.193Z,13.25
2023-05-06T02:23:36.153Z,13.20
2023-05-06T02:24:36.127Z,13.18
2023-05-06T02:25:36.085Z,13.16
2023-05-06T02:26:36.058Z,13.08
2023-05-06T02:27:36.033Z,13.15
2023-05-06T02:28:56.984Z,13.12
2023-05-06T02:29:35.951Z,13.05
2023-05-06T02:30:35.929Z,13.12
2023-05-06T02:31:35.936Z,13.05
2023-05-06T02:32:35.891Z,13.12
2023-05-06T02:33:35.851Z,13.05
2023-05-06T02:34:56.777Z,13.09
2023-05-06T02:35:35.764Z,13.00
2023-05-06T02:36:35.763Z,13.00
2023-05-06T02:37:35.680Z,12.98
2023-05-06T02:38:35.640Z,13.03
2023-05-06T02:39:35.602Z,12.98
2023-05-06T02:40:56.570Z,13.00
2023-05-06T02:41:35.532Z,12.97
2023-05-06T02:42:35.551Z,13.00
2023-05-06T02:43:35.496Z,13.00
2023-05-06T02:44:35.435Z,12.91
2023-05-06T02:45:35.428Z,13.04
2023-05-06T02:46:56.368Z,12.95
2023-05-06T02:47:35.340Z,12.93
2023-05-06T02:48:35.294Z,12.86
2023-05-06T02:49:35.286Z,12.85
2023-05-06T02:50:35.225Z,12.91
2023-05-06T02:51:35.233Z,12.91
2023-05-06T02:52:56.153Z,12.90
2023-05-06T02:53:35.117Z,12.85
2023-05-06T02:54:35.083Z,12.86
2023-05-06T02:55:35.045Z,12.87
2023-05-06T02:56:35.017Z,12.80
2023-05-06T02:57:34.975Z,12.75
2023-05-06T02:58:55.946Z,12.83
2023-05-06T02:59:34.904Z,12.78
2023-05-06T03:00:34.882Z,12.80
2023-05-06T03:01:34.873Z,12.75
2023-05-06T03:02:34.821Z,12.78
2023-05-06T03:03:34.776Z,12.68
2023-05-06T03:04:55.738Z,12.72
2023-05-06T03:05:34.701Z,12.64
2023-05-06T03:06:34.671Z,12.62
2023-05-06T03:07:34.634Z,12.65
2023-05-06T03:08:34.670Z,12.78
2023-05-06T03:09:34.565Z,12.76
2023-05-06T03:10:55.528Z,12.67
2023-05-06T03:11:34.491Z,12.60
2023-05-06T03:12:34.501Z,12.64
2023-05-06T03:13:34.425Z,12.58
2023-05-06T03:14:34.391Z,12.64
2023-05-06T03:15:34.351Z,12.65
2023-05-06T03:16:55.384Z,12.62
2023-05-06T03:17:34.370Z,12.67
2023-05-06T03:18:34.255Z,12.64
2023-05-06T03:19:34.229Z,12.64
2023-05-06T03:20:34.179Z,12.64
2023-05-06T03:21:34.171Z,12.61
2023-05-06T03:22:55.108Z,12.60
2023-05-06T03:23:34.093Z,12.65
2023-05-06T03:24:34.047Z,12.54
2023-05-06T03:25:34.010Z,12.61
2023-05-06T03:26:33.969Z,12.50
2023-05-06T03:27:33.945Z,12.49
2023-05-06T03:28:54.898Z,12.54
2023-05-06T03:29:33.862Z,12.45
2023-05-06T03:30:33.857Z,12.49
2023-05-06T03:31:33.826Z,12.55
2023-05-06T03:32:33.779Z,12.58
2023-05-06T03:33:33.743Z,12.45
2023-05-06T03:34:54.692Z,12.54
2023-05-06T03:35:33.659Z,12.50
2023-05-06T03:36:33.620Z,12.53
2023-05-06T03:37:33.593Z,12.53
2023-05-06T03:38:33.549Z,12.40
2023-05-06T03:39:33.525Z,12.36
2023-05-06T03:40:54.483Z,12.36
2023-05-06T03:41:33.458Z,12.47
2023-05-06T03:42:33.411Z,12.43
2023-05-06T03:43:33.381Z,12.37
2023-05-06T03:44:33.339Z,12.40
2023-05-06T03:45:33.313Z,12.39
2023-05-06T03:46:54.277Z,12.36
2023-05-06T03:47:33.242Z,12.37
2023-05-06T03:48:33.203Z,12.40
2023-05-06T03:49:33.169Z,12.39
2023-05-06T03:50:33.138Z,12.43
2023-05-06T03:51:33.097Z,12.43
2023-05-06T03:52:54.070Z,12.36
2023-05-06T03:53:33.021Z,12.29
2023-05-06T03:54:32.990Z,12.31
2023-05-06T03:55:32.967Z,12.32
2023-05-06T03:56:32.933Z,12.32
2023-05-06T03:57:32.885Z,12.42
2023-05-06T03:58:53.852Z,12.31
2023-05-06T03:59:32.839Z,12.36
2023-05-06T04:00:32.782Z,12.29
2023-05-06T04:01:32.745Z,12.31
2023-05-06T04:02:32.775Z,12.29
2023-05-06T04:03:32.784Z,12.29
2023-05-06T04:04:53.631Z,12.29
2023-05-06T04:05:32.611Z,12.31
2023-05-06T04:06:32.583Z,12.29
2023-05-06T04:07:32.534Z,12.31
2023-05-06T04:08:32.505Z,12.28
2023-05-06T04:09:32.474Z,12.29
2023-05-06T04:10:53.426Z,12.28
2023-05-06T04:11:32.393Z,12.25
2023-05-06T04:12:32.451Z,12.27
2023-05-06T04:13:32.326Z,12.27
2023-05-06T04:14:32.312Z,12.28
2023-05-06T04:15:32.255Z,12.25
2023-05-06T04:16:53.218Z,12.28
2023-05-06T04:17:32.195Z,12.24
2023-05-06T04:18:32.152Z,12.25
2023-05-06T04:19:32.123Z,12.29
2023-05-06T04:20:32.081Z,12.28
2023-05-06T04:21:32.040Z,12.27
2023-05-06T04:22:53.005Z,12.28
2023-05-06T04:23:31.974Z,12.25
2023-05-06T04:24:31.941Z,12.32
2023-05-06T04:25:31.907Z,12.27
2023-05-06T04:26:31.870Z,12.28
2023-05-06T04:27:31.838Z,12.25
2023-05-06T04:28:52.793Z,12.20
2023-05-06T04:29:31.763Z,12.28
2023-05-06T04:30:31.730Z,12.24
2023-05-06T04:31:31.720Z,12.32
2023-05-06T04:32:31.670Z,12.28
2023-05-06T04:33:31.622Z,12.25
2023-05-06T04:34:52.588Z,12.29
2023-05-06T04:35:31.558Z,12.24
2023-05-06T04:36:31.520Z,12.29
2023-05-06T04:37:31.509Z,12.32
2023-05-06T04:38:31.458Z,12.25
2023-05-06T04:39:31.410Z,12.31
2023-05-06T04:40:52.378Z,12.31
2023-05-06T04:41:31.368Z,12.28
2023-05-06T04:42:31.309Z,12.24
2023-05-06T04:43:31.273Z,12.36
2023-05-06T04:44:31.315Z,12.35
2023-05-06T04:45:31.227Z,12.37
2023-05-06T04:46:52.177Z,12.42
2023-05-06T04:47:31.149Z,12.37
2023-05-06T04:48:31.098Z,12.37
2023-05-06T04:49:31.067Z,12.37
2023-05-06T04:50:31.034Z,12.39
2023-05-06T04:51:30.999Z,12.35
2023-05-06T04:52:51.962Z,12.37
2023-05-06T04:53:30.928Z,12.36
2023-05-06T04:54:30.892Z,12.39
2023-05-06T04:55:30.856Z,12.40
2023-05-06T04:56:30.824Z,12.36
2023-05-06T04:57:30.788Z,12.40
2023-05-06T04:58:51.753Z,12.50
2023-05-06T04:59:30.718Z,12.39
2023-05-06T05:00:30.762Z,12.50
2023-05-06T05:01:30.678Z,12.53
2023-05-06T05:02:30.681Z,12.43
2023-05-06T05:03:30.664Z,12.53
2023-05-06T05:04:51.534Z,12.50
2023-05-06T05:05:30.512Z,12.50
2023-05-06T05:06:30.476Z,12.53
2023-05-06T05:07:30.439Z,12.54
2023-05-06T05:08:30.416Z,12.55
2023-05-06T05:09:30.365Z,12.54
2023-05-06T05:10:51.325Z,12.50
2023-05-06T05:11:30.302Z,12.55
2023-05-06T05:12:30.255Z,12.62
2023-05-06T05:13:30.226Z,12.58
2023-05-06T05:14:30.197Z,12.70
2023-05-06T05:15:30.156Z,12.67
2023-05-06T05:16:51.207Z,12.62
2023-05-06T05:17:30.137Z,12.64
2023-05-06T05:18:30.056Z,12.62
2023-05-06T05:19:30.024Z,12.64
2023-05-06T05:20:29.987Z,12.64
2023-05-06T05:21:29.945Z,12.75
2023-05-06T05:22:50.916Z,12.60
2023-05-06T05:23:29.901Z,12.73
2023-05-06T05:24:29.839Z,12.57
2023-05-06T05:25:29.808Z,12.75
2023-05-06T05:26:29.771Z,12.76
2023-05-06T05:27:29.734Z,12.68
2023-05-06T05:28:50.697Z,12.70
2023-05-06T05:29:29.670Z,12.72
2023-05-06T05:30:29.636Z,12.79
2023-05-06T05:31:29.614Z,12.78
2023-05-06T05:32:29.602Z,12.87
2023-05-06T05:33:29.555Z,12.82
2023-05-06T05:34:50.487Z,12.80
2023-05-06T05:35:29.457Z,12.87
2023-05-06T05:36:29.424Z,12.90
2023-05-06T05:37:29.389Z,12.91
2023-05-06T05:38:29.360Z,12.91
2023-05-06T05:39:29.319Z,12.93
2023-05-06T05:40:50.311Z,12.94
2023-05-06T05:41:29.275Z,13.01
2023-05-06T05:42:29.209Z,12.98
2023-05-06T05:43:29.178Z,12.95
2023-05-06T05:44:29.143Z,12.94
2023-05-06T05:45:29.115Z,13.04
2023-05-06T05:46:50.098Z,12.97
2023-05-06T05:47:29.064Z,13.00
2023-05-06T05:48:29.076Z,13.03
2023-05-06T05:49:28.969Z,13.03
2023-05-06T05:50:28.938Z,13.12
2023-05-06T05:51:28.902Z,13.09
2023-05-06T05:52:49.887Z,13.09
2023-05-06T05:53:28.828Z,13.05
2023-05-06T05:54:28.796Z,13.15
2023-05-06T05:55:28.766Z,13.13
2023-05-06T05:56:28.722Z,13.11
2023-05-06T05:57:28.706Z,13.20
2023-05-06T05:58:49.652Z,13.22
2023-05-06T05:59:28.721Z,13.20
2023-05-06T06:00:28.605Z,13.22
2023-05-06T06:01:28.589Z,13.30
2023-05-06T06:02:28.608Z,13.30
2023-05-06T06:03:28.590Z,13.31
2023-05-06T06:04:49.727Z,13.31
2023-05-06T06:05:28.435Z,13.31
2023-05-06T06:06:28.381Z,13.38
2023-05-06T06:07:28.355Z,13.33
2023-05-06T06:08:28.318Z,13.42
2023-05-06T06:09:28.277Z,13.44
2023-05-06T06:10:49.233Z,13.47
2023-05-06T06:11:28.212Z,13.54
2023-05-06T06:12:28.214Z,13.56
2023-05-06T06:13:29.026Z,13.52
2023-05-06T06:14:28.105Z,13.59
2023-05-06T06:15:28.069Z,13.57
2023-05-06T06:16:49.026Z,13.67
2023-05-06T06:17:28.019Z,13.67
2023-05-06T06:18:27.973Z,13.62
2023-05-06T06:19:27.933Z,13.67
2023-05-06T06:20:28.039Z,13.74
2023-05-06T06:21:27.870Z,13.78
2023-05-06T06:22:48.823Z,13.75
2023-05-06T06:23:27.814Z,13.72
2023-05-06T06:24:27.757Z,13.75
2023-05-06T06:25:27.738Z,13.79
2023-05-06T06:26:27.690Z,13.74
2023-05-06T06:27:27.656Z,13.79
2023-05-06T06:28:48.616Z,13.87
2023-05-06T06:29:27.586Z,13.81
2023-05-06T06:30:27.555Z,13.83
2023-05-06T06:31:27.552Z,13.97
2023-05-06T06:32:27.514Z,13.95
2023-05-06T06:33:27.453Z,14.00
2023-05-06T06:34:48.416Z,13.87
2023-05-06T06:35:27.384Z,13.99
2023-05-06T06:36:27.464Z,13.95
2023-05-06T06:37:27.312Z,14.04
2023-05-06T06:38:27.279Z,14.08
2023-05-06T06:39:27.250Z,14.11
2023-05-06T06:40:48.212Z,14.12
2023-05-06T06:41:27.185Z,14.25
2023-05-06T06:42:27.340Z,14.15
2023-05-06T06:43:27.111Z,14.22
2023-05-06T06:44:27.073Z,14.20
2023-05-06T06:45:27.078Z,14.30
2023-05-06T06:46:48.006Z,14.32
2023-05-06T06:47:26.975Z,14.35
2023-05-06T06:48:26.948Z,14.43
2023-05-06T06:49:26.908Z,14.43
2023-05-06T06:50:26.880Z,14.36
2023-05-06T06:51:26.850Z,14.40
2023-05-06T06:52:47.880Z,14.48
2023-05-06T06:53:26.773Z,14.48
2023-05-06T06:54:26.738Z,14.54
2023-05-06T06:55:26.710Z,14.53
2023-05-06T06:56:26.663Z,14.54
2023-05-06T06:57:26.650Z,14.51
2023-05-06T06:58:47.599Z,14.63
2023-05-06T06:59:26.571Z,14.65
2023-05-06T07:00:26.564Z,14.63
2023-05-06T07:01:26.560Z,14.70
2023-05-06T07:02:26.511Z,14.72
2023-05-06T07:03:26.440Z,14.72
2023-05-06T07:04:47.396Z,14.66
2023-05-06T07:05:26.370Z,14.86
2023-05-06T07:06:26.333Z,14.82
2023-05-06T07:07:26.301Z,14.88
2023-05-06T07:08:26.337Z,14.92
2023-05-06T07:09:26.248Z,14.96
2023-05-06T07:10:47.204Z,14.99
2023-05-06T07:11:26.168Z,15.10
2023-05-06T07:12:26.131Z,15.14
2023-05-06T07:13:26.113Z,15.11
2023-05-06T07:14:26.068Z,15.19
2023-05-06T07:15:26.066Z,15.21
2023-05-06T07:16:48.761Z,15.24
2023-05-06T07:17:26.082Z,15.18
2023-05-06T07:18:25.935Z,15.22
2023-05-06T07:19:25.899Z,15.35
2023-05-06T07:20:25.872Z,15.28
2023-05-06T07:21:25.843Z,15.39
2023-05-06T07:22:46.795Z,15.40
2023-05-06T07:23:25.784Z,15.42
2023-05-06T07:24:25.738Z,15.42
2023-05-06T07:25:25.693Z,15.43
2023-05-06T07:26:25.667Z,15.46
2023-05-06T07:27:25.649Z,15.52
2023-05-06T07:28:46.596Z,15.58
2023-05-06T07:29:25.570Z,15.51
2023-05-06T07:30:25.547Z,15.57
2023-05-06T07:31:25.514Z,15.55
2023-05-06T07:32:25.481Z,15.57
2023-05-06T07:33:25.447Z,15.54
2023-05-06T07:34:46.397Z,15.61
2023-05-06T07:35:25.378Z,15.64
2023-05-06T07:36:25.336Z,15.65
2023-05-06T07:37:25.307Z,15.67
2023-05-06T07:38:25.266Z,15.65
2023-05-06T07:39:25.247Z,15.70
2023-05-06T07:40:46.276Z,15.73
2023-05-06T07:41:25.172Z,15.76
2023-05-06T07:42:25.175Z,15.72
2023-05-06T07:43:25.112Z,15.83
2023-05-06T07:44:25.072Z,15.79
2023-05-06T07:45:25.034Z,15.88
2023-05-06T07:46:46.051Z,15.91
2023-05-06T07:47:25.083Z,15.92
2023-05-06T07:48:24.947Z,15.90
2023-05-06T07:49:24.906Z,15.97
2023-05-06T07:50:24.872Z,16.00
2023-05-06T07:51:24.841Z,15.98
2023-05-06T07:52:45.820Z,16.05
2023-05-06T07:53:24.783Z,16.09
2023-05-06T07:54:24.739Z,16.13
2023-05-06T07:55:24.734Z,16.12
2023-05-06T07:56:24.680Z,16.17
2023-05-06T07:57:24.643Z,16.24
2023-05-06T07:58:45.622Z,16.09
2023-05-06T07:59:24.583Z,16.17
2023-05-06T08:00:24.544Z,16.24
2023-05-06T08:01:24.527Z,16.29
2023-05-06T08:02:24.583Z,16.29
2023-05-06T08:03:24.523Z,16.29
2023-05-06T08:04:45.449Z,16.31
2023-05-06T08:05:24.385Z,16.41
2023-05-06T08:06:24.353Z,16.39
2023-05-06T08:07:24.325Z,16.38
2023-05-06T08:08:24.284Z,16.39
2023-05-06T08:09:24.251Z,16.47
2023-05-06T08:10:45.225Z,16.54
2023-05-06T08:11:24.197Z,16.57
2023-05-06T08:12:24.237Z,16.53
2023-05-06T08:13:24.165Z,16.69
2023-05-06T08:14:24.100Z,16.64
2023-05-06T08:15:24.055Z,16.64
2023-05-06T08:16:45.221Z,16.66
2023-05-06T08:17:24.028Z,16.68
2023-05-06T08:18:24.036Z,16.68
2023-05-06T08:19:23.934Z,16.78
2023-05-06T08:20:23.898Z,16.68
2023-05-06T08:21:23.866Z,16.79
2023-05-06T08:22:44.833Z,16.83
2023-05-06T08:23:23.816Z,16.78
2023-05-06T08:24:23.766Z,16.94
2023-05-06T08:25:23.757Z,16.96
2023-05-06T08:26:23.704Z,16.89
2023-05-06T08:27:23.676Z,16.94
2023-05-06T08:28:44.770Z,16.97
2023-05-06T08:29:23.619Z,16.99
2023-05-06T08:30:23.575Z,17.02
2023-05-06T08:31:23.706Z,17.06
2023-05-06T08:32:23.598Z,17.16
2023-05-06T08:33:23.486Z,17.15
2023-05-06T08:34:44.448Z,17.14
2023-05-06T08:35:23.417Z,17.19
2023-05-06T08:36:23.382Z,17.23
2023-05-06T08:37:23.361Z,17.24
2023-05-06T08:38:23.324Z,17.27
2023-05-06T08:39:23.288Z,17.23
2023-05-06T08:40:44.266Z,17.38
2023-05-06T08:41:23.229Z,17.42
2023-05-06T08:42:23.208Z,17.36
2023-05-06T08:43:23.163Z,17.33
2023-05-06T08:44:23.203Z,17.51
2023-05-06T08:45:23.103Z,17.39
2023-05-06T08:46:44.081Z,17.45
2023-05-06T08:47:23.050Z,17.56
2023-05-06T08:48:23.000Z,17.60
2023-05-06T08:49:22.973Z,17.57
2023-05-06T08:50:22.953Z,17.57
2023-05-06T08:51:25.456Z,17.59
2023-05-06T08:52:43.878Z,17.65
2023-05-06T08:53:22.841Z,17.57
2023-05-06T08:54:22.807Z,17.72
2023-05-06T08:55:22.785Z,17.72
2023-05-06T08:56:22.747Z,17.76
2023-05-06T08:57:22.715Z,17.82
2023-05-06T08:58:43.687Z,17.79
2023-05-06T08:59:22.657Z,17.86
2023-05-06T09:00:22.695Z,17.97
2023-05-06T09:01:22.606Z,17.98
2023-05-06T09:02:22.635Z,18.03
2023-05-06T09:03:22.582Z,17.89
2023-05-06T09:04:43.491Z,18.04
2023-05-06T09:05:22.463Z,18.03
2023-05-06T09:06:22.427Z,17.97
2023-05-06T09:07:22.405Z,18.01
2023-05-06T09:08:22.366Z,17.98
2023-05-06T09:09:22.344Z,17.98
2023-05-06T09:10:43.331Z,18.16
2023-05-06T09:11:22.280Z,18.13
2023-05-06T09:12:22.293Z,18.18
2023-05-06T09:13:22.274Z,18.19
2023-05-06T09:14:22.177Z,18.25
2023-05-06T09:15:22.148Z,18.28
2023-05-06T09:16:43.293Z,18.35
2023-05-06T09:17:22.097Z,18.23
2023-05-06T09:18:22.060Z,18.34
2023-05-06T09:19:22.019Z,18.45
2023-05-06T09:20:21.990Z,18.52
2023-05-06T09:21:21.962Z,18.52
2023-05-06T09:22:42.938Z,18.58
2023-05-06T09:23:21.898Z,18.58
2023-05-06T09:24:21.886Z,18.55
2023-05-06T09:25:21.834Z,18.66
2023-05-06T09:26:21.821Z,18.75
2023-05-06T09:27:21.773Z,18.80
2023-05-06T09:28:42.740Z,18.80
2023-05-06T09:29:21.723Z,18.88
2023-05-06T09:30:21.680Z,18.93
2023-05-06T09:31:21.700Z,18.92
2023-05-06T09:32:21.705Z,18.92
2023-05-06T09:33:21.592Z,18.88
2023-05-06T09:34:42.563Z,18.99
2023-05-06T09:35:21.530Z,18.99
2023-05-06T09:36:21.517Z,19.07
2023-05-06T09:37:21.470Z,19.14
2023-05-06T09:38:21.430Z,19.24
2023-05-06T09:39:21.410Z,19.27
2023-05-06T09:40:42.377Z,19.31
2023-05-06T09:41:21.345Z,19.21
2023-05-06T09:42:21.306Z,19.26
2023-05-06T09:43:21.285Z,19.40
2023-05-06T09:44:21.248Z,19.44
2023-05-06T09:45:21.218Z,19.55
2023-05-06T09:46:42.344Z,19.58
2023-05-06T09:47:21.158Z,19.58
2023-05-06T09:48:21.162Z,19.71
2023-05-06T09:49:21.096Z,19.73
2023-05-06T09:50:21.069Z,19.77
2023-05-06T09:51:21.032Z,19.84
2023-05-06T09:52:42.007Z,19.88
2023-05-06T09:53:20.974Z,19.95
2023-05-06T09:54:20.948Z,20.04
2023-05-06T09:55:20.923Z,19.96
2023-05-06T09:56:20.886Z,20.06
2023-05-06T09:57:20.859Z,20.10
2023-05-06T09:58:41.826Z,20.13
2023-05-06T09:59:20.810Z,20.18
2023-05-06T10:00:20.765Z,20.21
2023-05-06T10:01:32.664Z,20.21
2023-05-06T10:02:20.846Z,20.28
2023-05-06T10:03:20.789Z,20.31
2023-05-06T10:04:41.877Z,20.29
2023-05-06T10:05:20.658Z,20.37
2023-05-06T10:06:20.584Z,20.44
2023-05-06T10:07:20.560Z,20.52
2023-05-06T10:08:20.528Z,20.63
2023-05-06T10:09:20.494Z,20.63
2023-05-06T10:10:41.470Z,20.75
2023-05-06T10:11:20.447Z,20.81
2023-05-06T10:12:20.462Z,20.99
2023-05-06T10:13:20.403Z,20.97
2023-05-06T10:14:20.358Z,21.07
2023-05-06T10:15:20.320Z,21.02
2023-05-06T10:16:41.381Z,20.99
2023-05-06T10:17:20.268Z,21.02
2023-05-06T10:18:20.237Z,21.11
2023-05-06T10:19:20.202Z,21.15
2023-05-06T10:20:20.267Z,21.22
2023-05-06T10:21:20.146Z,21.20
2023-05-06T10:22:41.108Z,21.22
2023-05-06T10:23:20.082Z,21.22
2023-05-06T10:24:20.066Z,21.29
2023-05-06T10:25:20.026Z,21.35
2023-05-06T10:26:20.000Z,21.35
2023-05-06T10:27:19.976Z,21.43
2023-05-06T10:28:40.931Z,21.50
2023-05-06T10:29:19.904Z,21.57
2023-05-06T10:30:19.871Z,21.57
2023-05-06T10:31:19.883Z,21.58
2023-05-06T10:32:19.826Z,21.60
2023-05-06T10:33:19.822Z,21.61
2023-05-06T10:34:40.750Z,21.67
2023-05-06T10:35:19.736Z,21.75
2023-05-06T10:36:19.769Z,21.83
2023-05-06T10:37:19.663Z,21.91
2023-05-06T10:38:19.640Z,21.89
2023-05-06T10:39:19.612Z,21.85
2023-05-06T10:40:40.584Z,21.92
2023-05-06T10:41:19.556Z,22.02
2023-05-06T10:42:19.590Z,22.08
2023-05-06T10:43:19.488Z,22.14
2023-05-06T10:44:19.465Z,22.15
2023-05-06T10:45:19.437Z,22.18
2023-05-06T10:46:40.407Z,22.18
2023-05-06T10:47:19.377Z,22.10
2023-05-06T10:48:19.348Z,22.04
2023-05-06T10:49:19.319Z,22.02
2023-05-06T10:50:19.290Z,22.14
2023-05-06T10:51:19.262Z,22.26
2023-05-06T10:52:40.259Z,22.33
2023-05-06T10:53:19.204Z,22.35
2023-05-06T10:54:19.210Z,22.44
2023-05-06T10:55:19.186Z,22.44
2023-05-06T10:56:19.114Z,22.50
2023-05-06T10:57:19.095Z,22.48
2023-05-06T10:58:40.069Z,22.50
2023-05-06T10:59:19.027Z,22.25
2023-05-06T11:00:19.013Z,22.08
2023-05-06T11:01:18.991Z,22.10
2023-05-06T11:02:19.238Z,22.23
2023-05-06T11:03:19.036Z,22.26
2023-05-06T11:04:39.886Z,22.26
2023-05-06T11:05:18.872Z,22.38
2023-05-06T11:06:18.839Z,22.41
2023-05-06T11:07:18.811Z,22.45
2023-05-06T11:08:18.856Z,22.54
2023-05-06T11:09:18.758Z,22.65
2023-05-06T11:10:39.747Z,22.70
2023-05-06T11:11:18.688Z,22.80
2023-05-06T11:12:18.663Z,22.83
2023-05-06T11:13:18.715Z,22.84
2023-05-06T11:14:18.606Z,22.85
2023-05-06T11:15:18.582Z,22.98
2023-05-06T11:16:39.580Z,23.00
2023-05-06T11:17:18.519Z,22.99
2023-05-06T11:18:18.501Z,23.08
2023-05-06T11:19:18.464Z,23.20
2023-05-06T11:20:18.450Z,23.25
2023-05-06T11:21:18.413Z,23.21
2023-05-06T11:22:39.383Z,23.21
2023-05-06T11:23:18.351Z,23.25
2023-05-06T11:24:18.330Z,23.23
2023-05-06T11:25:18.296Z,23.08
2023-05-06T11:26:18.268Z,23.10
2023-05-06T11:27:18.240Z,23.15
2023-05-06T11:28:39.210Z,23.13
2023-05-06T11:29:18.182Z,23.20
2023-05-06T11:30:18.156Z,23.28
2023-05-06T11:31:18.185Z,23.36
2023-05-06T11:32:18.098Z,23.32
2023-05-06T11:33:18.070Z,23.39
2023-05-06T11:34:39.060Z,23.37
2023-05-06T11:35:18.029Z,23.43
2023-05-06T11:36:17.998Z,23.46
2023-05-06T11:37:17.970Z,23.61
2023-05-06T11:38:17.932Z,23.69
2023-05-06T11:39:17.919Z,23.77
2023-05-06T11:40:39.009Z,23.84
2023-05-06T11:41:17.854Z,23.92
2023-05-06T11:42:17.827Z,23.88
2023-05-06T11:43:17.798Z,23.92
2023-05-06T11:44:17.771Z,23.87
2023-05-06T11:45:17.745Z,23.99
2023-05-06T11:46:38.756Z,24.13
2023-05-06T11:47:17.685Z,24.14
2023-05-06T11:48:17.695Z,24.32
2023-05-06T11:49:17.632Z,24.47
2023-05-06T11:50:17.616Z,24.65
2023-05-06T11:51:17.584Z,24.80
2023-05-06T11:52:38.549Z,25.03
2023-05-06T11:53:17.528Z,25.22
2023-05-06T11:54:17.500Z,25.31
2023-05-06T11:55:17.888Z,25.51
2023-05-06T11:56:17.530Z,25.69
2023-05-06T11:57:17.427Z,25.84
2023-05-06T11:58:38.389Z,25.98
2023-05-06T11:59:17.363Z,26.21
2023-05-06T12:00:17.350Z,26.31
2023-05-06T12:01:17.326Z,26.52
2023-05-06T12:02:17.351Z,26.66
2023-05-06T12:03:17.396Z,26.84
2023-05-06T12:04:38.268Z,26.70
2023-05-06T12:05:17.222Z,26.66
2023-05-06T12:06:17.189Z,26.81
2023-05-06T12:07:17.184Z,26.81
2023-05-06T12:08:26.857Z,26.77
2023-05-06T12:09:17.109Z,26.84
2023-05-06T12:10:38.095Z,26.77
2023-05-06T12:11:17.063Z,26.83
2023-05-06T12:12:17.117Z,26.77
2023-05-06T12:13:17.036Z,26.58
2023-05-06T12:14:16.987Z,26.60
2023-05-06T12:15:16.964Z,26.59
2023-05-06T12:16:37.954Z,26.62
2023-05-06T12:17:16.912Z,26.55
2023-05-06T12:18:16.890Z,26.45
2023-05-06T12:19:16.856Z,26.48
2023-05-06T12:20:16.831Z,26.47
2023-05-06T12:21:16.808Z,26.21
2023-05-06T12:22:37.788Z,26.13
2023-05-06T12:23:16.767Z,26.09
2023-05-06T12:24:16.816Z,26.03
2023-05-06T12:25:16.717Z,26.05
2023-05-06T12:26:16.685Z,25.91
2023-05-06T12:27:16.655Z,25.84
2023-05-06T12:28:37.713Z,25.81
2023-05-06T12:29:16.602Z,25.65
2023-05-06T12:30:16.592Z,25.62
2023-05-06T12:31:16.610Z,25.60
2023-05-06T12:32:16.586Z,25.51
2023-05-06T12:33:16.497Z,25.51
2023-05-06T12:34:37.483Z,25.50
2023-05-06T12:35:16.462Z,25.50
2023-05-06T12:36:16.424Z,25.36
2023-05-06T12:37:16.395Z,25.35
2023-05-06T12:38:16.375Z,25.32
2023-05-06T12:39:16.385Z,25.25
2023-05-06T12:40:37.320Z,25.08
2023-05-06T12:41:16.289Z,25.07
2023-05-06T12:42:16.297Z,24.93
2023-05-06T12:43:16.237Z,24.89
2023-05-06T12:44:16.217Z,24.85
2023-05-06T12:45:16.185Z,24.70
2023-05-06T12:46:37.166Z,24.60
2023-05-06T12:47:16.139Z,24.48
2023-05-06T12:48:16.121Z,24.45
2023-05-06T12:49:16.083Z,24.35
2023-05-06T12:50:16.058Z,24.26
2023-05-06T12:51:16.036Z,24.26
2023-05-06T12:52:37.000Z,24.29